createdAt,value
2022-09-22T04:17:57.397Z,2.32
2022-09-22T04:20:23.950Z,2.22
2022-09-22T04:22:50.379Z,2.19
2022-09-22T04:25:16.815Z,2.23
2022-09-22T04:27:43.220Z,2.39
2022-09-22T04:30:10.605Z,2.43
2022-09-22T04:32:39.243Z,2.40
2022-09-22T04:35:06.849Z,2.41
2022-09-22T04:37:33.303Z,2.39
2022-09-22T04:40:00.093Z,2.45
2022-09-22T04:42:26.947Z,2.26
2022-09-22T04:44:56.991Z,2.25
2022-09-22T04:47:23.455Z,2.23
2022-09-22T04:49:50.349Z,2.13
2022-09-22T04:52:16.807Z,2.14
2022-09-22T04:54:43.314Z,1.99
2022-09-22T04:57:09.980Z,1.95
2022-09-22T04:59:36.512Z,1.91
2022-09-22T05:02:03.629Z,1.94
2022-09-22T05:04:30.095Z,1.92
2022-09-22T05:06:56.930Z,2.02
2022-09-22T05:09:25.566Z,2.06
2022-09-22T05:11:52.014Z,2.05
2022-09-22T05:14:22.764Z,2.03
2022-09-22T05:16:52.366Z,2.01
2022-09-22T05:19:18.938Z,2.04
2022-09-22T05:21:55.805Z,1.99
2022-09-22T05:24:22.300Z,2.02
2022-09-22T05:26:48.878Z,2.06
2022-09-22T05:29:17.636Z,2.06
2022-09-22T05:31:45.934Z,2.05
2022-09-22T05:34:12.722Z,2.07
2022-09-22T05:36:39.520Z,2.05
2022-09-22T05:39:06.082Z,2.08
2022-09-22T05:41:32.659Z,2.10
2022-09-22T05:43:59.135Z,2.12
2022-09-22T05:46:25.692Z,2.09
2022-09-22T05:48:52.191Z,2.10
2022-09-22T05:51:18.602Z,2.14
2022-09-22T05:53:45.063Z,2.11
2022-09-22T05:56:11.489Z,2.13
2022-09-22T05:58:37.933Z,2.17
2022-09-22T06:01:04.610Z,2.17
2022-09-22T06:03:31.278Z,2.21
2022-09-22T06:05:57.806Z,2.25
2022-09-22T06:08:25.323Z,2.18
2022-09-22T06:10:52.722Z,2.23
2022-09-22T06:13:19.331Z,2.35
2022-09-22T06:15:48.596Z,2.43
2022-09-22T06:18:24.112Z,2.45
2022-09-22T06:20:51.190Z,2.49
2022-09-22T06:23:17.654Z,2.55
2022-09-22T06:25:44.160Z,2.64
2022-09-22T06:28:14.119Z,2.70
2022-09-22T06:30:40.872Z,2.76
2022-09-22T06:33:08.293Z,2.74
2022-09-22T06:35:37.836Z,2.78
2022-09-22T06:38:06.268Z,2.88
2022-09-22T06:40:36.151Z,2.92
2022-09-22T06:43:10.545Z,2.99
2022-09-22T06:45:37.786Z,3.05
2022-09-22T06:48:11.831Z,3.11
2022-09-22T06:50:40.911Z,3.13
2022-09-22T06:53:14.025Z,3.15
2022-09-22T06:55:43.878Z,3.29
2022-09-22T06:58:11.031Z,3.38
2022-09-22T07:00:37.850Z,3.45
2022-09-22T07:03:22.357Z,3.51
2022-09-22T07:05:55.398Z,3.56
2022-09-22T07:08:24.086Z,3.49
2022-09-22T07:11:02.414Z,3.63
2022-09-22T07:13:31.090Z,3.73
2022-09-22T07:16:01.711Z,3.87
2022-09-22T07:18:29.584Z,3.96
2022-09-22T07:21:27.637Z,4.10
2022-09-22T07:23:55.603Z,4.11
2022-09-22T07:26:48.769Z,4.23
2022-09-22T07:29:16.744Z,4.34
2022-09-22T07:31:43.336Z,4.39
2022-09-22T07:34:10.691Z,4.48
2022-09-22T07:36:37.504Z,4.61
2022-09-22T07:39:12.127Z,4.69
2022-09-22T07:41:42.972Z,4.76
2022-09-22T07:44:30.783Z,4.78
2022-09-22T07:46:58.025Z,4.80
2022-09-22T07:49:24.634Z,4.76
2022-09-22T07:52:07.510Z,4.87
2022-09-22T07:54:39.707Z,4.96
2022-09-22T07:57:10.957Z,5.07
2022-09-22T07:59:37.960Z,5.10
2022-09-22T08:02:04.566Z,5.04
2022-09-22T08:04:31.889Z,5.13
2022-09-22T08:06:58.388Z,5.14
2022-09-22T08:09:25.353Z,5.26
2022-09-22T08:11:53.469Z,5.34
2022-09-22T08:14:23.719Z,5.43
2022-09-22T08:16:53.794Z,5.55
2022-09-22T08:19:23.398Z,5.61
2022-09-22T08:21:53.620Z,5.65
2022-09-22T08:24:22.082Z,5.70
2022-09-22T08:26:50.622Z,5.71
2022-09-22T08:29:18.191Z,5.85
2022-09-22T08:31:47.864Z,5.96
2022-09-22T08:34:16.528Z,6.02
2022-09-22T08:36:48.502Z,6.12
2022-09-22T08:39:17.348Z,6.29
2022-09-22T08:42:43.789Z,6.34
2022-09-22T08:45:34.655Z,6.44
2022-09-22T08:48:31.533Z,6.58
2022-09-22T08:51:39.252Z,6.63
2022-09-22T08:54:08.452Z,6.77
2022-09-22T08:57:11.064Z,6.81
2022-09-22T08:59:58.277Z,6.87
2022-09-22T09:02:42.985Z,6.91
2022-09-22T09:05:49.536Z,7.03
2022-09-22T09:08:22.265Z,7.26
2022-09-22T09:11:06.947Z,7.34
2022-09-22T09:14:15.970Z,7.46
2022-09-22T09:16:59.363Z,7.63
2022-09-22T09:19:31.817Z,7.71
2022-09-22T09:22:02.009Z,7.87
2022-09-22T09:27:23.116Z,8.15
2022-09-22T09:30:11.430Z,8.26
2022-09-22T09:32:59.132Z,8.43
2022-09-22T09:35:45.126Z,8.63
2022-09-22T09:38:17.367Z,8.77
2022-09-22T09:40:55.709Z,8.94
2022-09-22T09:43:24.017Z,9.03
2022-09-22T09:46:23.307Z,9.12
2022-09-22T09:49:11.716Z,9.29
2022-09-22T09:51:42.283Z,9.42
2022-09-22T09:54:18.080Z,9.49
2022-09-22T09:57:09.750Z,9.67
2022-09-22T09:59:57.518Z,9.93
2022-09-22T10:02:35.125Z,9.97
2022-09-22T10:05:07.596Z,10.05
2022-09-22T10:07:46.801Z,10.28
2022-09-22T10:10:33.001Z,10.35
2022-09-22T10:13:05.711Z,10.46
2022-09-22T10:15:37.856Z,10.74
2022-09-22T10:18:24.716Z,10.95
2022-09-22T10:21:15.348Z,11.13
2022-09-22T10:23:43.359Z,11.33
2022-09-22T10:26:20.611Z,11.62
2022-09-22T10:29:14.319Z,11.80
2022-09-22T10:31:41.771Z,11.91
2022-09-22T10:34:33.416Z,11.84
2022-09-22T10:37:04.051Z,12.03
2022-09-22T10:39:39.891Z,12.07
2022-09-22T10:42:15.355Z,12.17
2022-09-22T10:44:48.252Z,12.69
2022-09-22T10:51:21.645Z,14.23
2022-09-22T10:54:06.395Z,14.79
2022-09-22T10:56:43.609Z,14.96
2022-09-22T10:59:18.444Z,15.82
2022-09-22T11:02:16.028Z,16.79
2022-09-22T11:05:40.152Z,17.78
2022-09-22T11:08:37.508Z,18.58
2022-09-22T11:11:44.573Z,19.43
2022-09-22T11:18:27.231Z,21.47
2022-09-22T11:21:22.727Z,21.57
2022-09-22T11:24:16.261Z,22.24
2022-09-22T11:26:51.114Z,21.30
2022-09-22T11:29:41.611Z,21.43
2022-09-22T11:32:23.547Z,23.36
2022-09-22T11:35:11.728Z,22.17
2022-09-22T11:37:57.513Z,22.06
2022-09-22T11:40:33.615Z,21.58
2022-09-22T11:43:17.927Z,22.90
2022-09-22T11:46:26.374Z,24.21
2022-09-22T11:49:16.622Z,24.81
2022-09-22T11:51:55.355Z,25.78
2022-09-22T11:58:49.830Z,25.73
2022-09-22T12:01:29.815Z,26.10
2022-09-22T12:04:22.643Z,26.72
2022-09-22T12:06:51.750Z,27.99
2022-09-22T12:09:36.946Z,25.68
2022-09-22T12:12:06.224Z,26.52
2022-09-22T12:14:34.496Z,26.74
2022-09-22T12:17:41.581Z,23.99
2022-09-22T12:20:36.182Z,24.82
2022-09-22T12:23:34.087Z,24.57
2022-09-22T12:26:46.218Z,24.58
2022-09-22T12:30:13.748Z,25.83
2022-09-22T12:33:32.578Z,25.46
2022-09-22T12:36:00.710Z,27.19
2022-09-22T12:38:28.315Z,27.90
2022-09-22T12:40:58.315Z,26.78
2022-09-22T12:43:29.839Z,26.06
2022-09-22T12:45:58.696Z,26.47
2022-09-22T12:48:37.163Z,25.69
2022-09-22T12:51:36.161Z,27.27
2022-09-22T12:54:27.638Z,27.90
2022-09-22T12:56:58.910Z,28.92
2022-09-22T13:00:07.073Z,28.02
2022-09-22T13:03:30.483Z,25.95
2022-09-22T13:05:58.489Z,27.66
2022-09-22T13:08:27.978Z,28.91
2022-09-22T13:11:01.682Z,28.32
2022-09-22T13:13:41.332Z,28.60
2022-09-22T13:16:13.973Z,28.22
2022-09-22T13:18:45.836Z,27.61
2022-09-22T13:21:12.256Z,29.26
2022-09-22T13:23:53.535Z,29.60
2022-09-22T13:27:02.274Z,29.97
2022-09-22T13:29:34.367Z,29.01
2022-09-22T13:32:30.300Z,28.85
2022-09-22T13:35:53.607Z,25.39
2022-09-22T13:38:20.719Z,22.38
2022-09-22T13:40:53.496Z,24.33
2022-09-22T13:44:15.471Z,25.57
2022-09-22T13:46:50.123Z,25.48
2022-09-22T13:49:34.379Z,26.19
2022-09-22T13:52:07.163Z,26.86
2022-09-22T13:54:36.729Z,27.83
2022-09-22T13:57:06.259Z,26.25
2022-09-22T13:59:40.334Z,25.65
2022-09-22T14:02:11.793Z,24.81
2022-09-22T14:04:59.571Z,25.74
2022-09-22T14:08:10.575Z,23.74
2022-09-22T14:10:41.135Z,24.00
2022-09-22T14:13:36.473Z,23.19
2022-09-22T14:16:38.685Z,24.03
2022-09-22T14:19:14.362Z,23.63
2022-09-22T14:22:04.228Z,23.74
2022-09-22T14:24:33.397Z,24.16
2022-09-22T14:27:19.411Z,25.94
2022-09-22T14:29:51.885Z,26.41
2022-09-22T14:32:28.153Z,24.81
2022-09-22T14:35:00.986Z,25.17
2022-09-22T14:37:32.816Z,25.82
2022-09-22T14:40:07.502Z,27.01
2022-09-22T14:42:34.643Z,27.13
2022-09-22T14:45:22.169Z,25.72
2022-09-22T14:48:26.920Z,26.30
2022-09-22T14:51:06.613Z,25.62
2022-09-22T14:53:45.688Z,23.15
2022-09-22T14:56:20.158Z,22.33
2022-09-22T14:58:52.257Z,20.35
2022-09-22T15:01:44.141Z,20.19
2022-09-22T15:04:26.774Z,19.00
2022-09-22T15:06:56.368Z,19.03
2022-09-22T15:09:56.125Z,18.31
2022-09-22T15:12:47.325Z,16.82
2022-09-22T15:15:30.434Z,16.86
2022-09-22T15:18:18.222Z,16.84
2022-09-22T15:20:58.192Z,17.00
2022-09-22T15:23:41.805Z,16.67
2022-09-22T15:26:24.967Z,16.19
2022-09-22T15:28:55.703Z,16.39
2022-09-22T15:31:26.549Z,16.55
2022-09-22T15:33:54.462Z,16.95
2022-09-22T15:36:22.597Z,16.15
2022-09-22T15:38:49.557Z,15.88
2022-09-22T15:41:17.149Z,15.64
2022-09-22T15:43:44.159Z,15.48
2022-09-22T15:46:29.258Z,15.69
2022-09-22T15:49:02.204Z,15.83
2022-09-22T15:51:30.356Z,15.86
2022-09-22T15:53:56.965Z,15.64
2022-09-22T15:56:24.194Z,15.75
2022-09-22T15:58:52.228Z,15.91
2022-09-22T16:01:18.768Z,16.12
2022-09-22T16:03:45.272Z,16.11
2022-09-22T16:06:15.487Z,15.72
2022-09-22T16:08:46.141Z,15.36
2022-09-22T16:11:14.992Z,15.09
2022-09-22T16:13:41.995Z,15.12
2022-09-22T16:16:12.549Z,15.03
2022-09-22T16:18:42.143Z,15.17
2022-09-22T16:21:20.175Z,15.13
2022-09-22T16:23:46.615Z,15.20
2022-09-22T16:26:13.093Z,14.95
2022-09-22T16:28:39.572Z,14.97
2022-09-22T16:31:08.642Z,14.54
2022-09-22T16:33:35.247Z,14.56
2022-09-22T16:36:02.383Z,14.42
2022-09-22T16:38:35.170Z,14.44
2022-09-22T16:41:05.113Z,14.48
2022-09-22T16:43:33.158Z,14.48
2022-09-22T16:46:18.942Z,14.43
2022-09-22T16:48:45.436Z,14.24
2022-09-22T16:51:26.275Z,14.23
2022-09-22T16:53:56.764Z,13.98
2022-09-22T16:56:39.202Z,13.73
2022-09-22T16:59:10.053Z,13.59
2022-09-22T17:01:41.429Z,13.48
2022-09-22T17:04:08.970Z,13.54
2022-09-22T17:06:44.704Z,13.28
2022-09-22T17:09:12.798Z,13.32
2022-09-22T17:11:41.766Z,13.33
2022-09-22T17:14:12.670Z,13.41
2022-09-22T17:16:43.295Z,13.33
2022-09-22T17:19:19.407Z,13.11
2022-09-22T17:21:48.765Z,13.13
2022-09-22T17:24:16.090Z,13.10
2022-09-22T17:26:47.323Z,13.03
2022-09-22T17:29:20.930Z,12.89
2022-09-22T17:31:48.110Z,12.75
2022-09-22T17:34:15.238Z,12.74
2022-09-22T17:36:41.792Z,12.74
2022-09-22T17:39:10.464Z,12.76
2022-09-22T17:41:45.237Z,12.69
2022-09-22T17:44:21.245Z,12.46
2022-09-22T17:47:11.193Z,12.44
2022-09-22T17:49:57.277Z,12.43
2022-09-22T17:52:39.954Z,12.39
2022-09-22T17:55:16.908Z,12.28
2022-09-22T17:57:45.828Z,12.16
2022-09-22T18:00:21.345Z,12.14
2022-09-22T18:02:54.360Z,11.92
2022-09-22T18:05:28.039Z,11.85
2022-09-22T18:07:58.302Z,11.73
2022-09-22T18:10:32.165Z,11.67
2022-09-22T18:12:59.253Z,11.67
2022-09-22T18:15:26.691Z,11.51
2022-09-22T18:17:55.653Z,11.42
2022-09-22T18:20:23.070Z,11.30
2022-09-22T18:22:49.964Z,11.28
2022-09-22T18:25:45.784Z,11.17
2022-09-22T18:28:12.372Z,11.06
2022-09-22T18:30:40.588Z,10.90
2022-09-22T18:33:07.161Z,10.76
2022-09-22T18:35:33.918Z,10.69
2022-09-22T18:38:00.888Z,10.55
2022-09-22T18:40:30.025Z,10.52
2022-09-22T18:42:56.810Z,10.41
2022-09-22T18:45:25.173Z,10.38
2022-09-22T18:47:51.998Z,10.25
2022-09-22T18:50:18.482Z,10.25
2022-09-22T18:52:45.843Z,10.14
2022-09-22T18:55:17.238Z,10.11
2022-09-22T18:57:48.577Z,9.93
2022-09-22T19:00:16.284Z,9.89
2022-09-22T19:02:43.215Z,9.84
2022-09-22T19:05:09.735Z,9.73
2022-09-22T19:07:42.626Z,9.70
2022-09-22T19:10:12.548Z,9.66
2022-09-22T19:12:42.485Z,9.61
2022-09-22T19:15:15.120Z,9.45
2022-09-22T19:17:44.758Z,9.43
2022-09-22T19:20:37.823Z,9.50
2022-09-22T19:23:07.152Z,9.47
2022-09-22T19:25:34.295Z,9.38
2022-09-22T19:28:02.281Z,9.25
2022-09-22T19:30:31.521Z,9.16
2022-09-22T19:32:58.212Z,9.10
2022-09-22T19:35:25.374Z,9.02
2022-09-22T19:37:52.194Z,8.90
2022-09-22T19:40:20.346Z,8.83
2022-09-22T19:43:16.735Z,8.86
2022-09-22T19:45:43.159Z,8.83
2022-09-22T19:48:10.573Z,8.81
2022-09-22T19:50:37.048Z,8.70
2022-09-22T19:53:03.514Z,8.61
2022-09-22T19:55:29.994Z,8.51
2022-09-22T19:57:56.426Z,8.57
2022-09-22T20:00:25.889Z,8.49
2022-09-22T20:02:59.791Z,8.46
2022-09-22T20:05:29.941Z,8.32
2022-09-22T20:07:56.396Z,8.43
2022-09-22T20:10:23.182Z,8.43
2022-09-22T20:12:51.524Z,8.37
2022-09-22T20:15:19.024Z,8.34
2022-09-22T20:17:47.160Z,8.26
2022-09-22T20:20:19.626Z,8.18
2022-09-22T20:22:47.502Z,8.30
2022-09-22T20:25:22.545Z,8.22
2022-09-22T20:27:49.186Z,8.21
2022-09-22T20:30:16.541Z,8.11
2022-09-22T20:32:44.001Z,7.95
2022-09-22T20:35:13.040Z,7.91
2022-09-22T20:37:42.213Z,7.95
2022-09-22T20:40:21.203Z,7.90
2022-09-22T20:42:48.627Z,7.78
2022-09-22T20:45:15.493Z,7.68
2022-09-22T20:47:41.894Z,7.64
2022-09-22T20:50:09.784Z,7.54
2022-09-22T20:52:36.849Z,7.61
2022-09-22T20:55:03.507Z,7.54
2022-09-22T20:57:30.925Z,7.52
2022-09-22T20:59:58.444Z,7.48
2022-09-22T21:02:25.656Z,7.40
2022-09-22T21:04:52.281Z,7.53
2022-09-22T21:07:18.974Z,7.35
2022-09-22T21:10:04.089Z,7.27
2022-09-22T21:12:31.559Z,7.15
2022-09-22T21:14:58.471Z,7.21
2022-09-22T21:17:26.383Z,7.09
2022-09-22T21:19:53.647Z,7.13
2022-09-22T21:22:20.093Z,7.06
2022-09-22T21:24:48.709Z,7.10
2022-09-22T21:27:15.207Z,7.00
2022-09-22T21:29:42.104Z,7.02
2022-09-22T21:32:09.469Z,7.05
2022-09-22T21:34:36.697Z,7.01
2022-09-22T21:37:03.779Z,7.01
2022-09-22T21:39:30.218Z,6.91
2022-09-22T21:41:56.652Z,6.80
2022-09-22T21:44:23.149Z,6.81
2022-09-22T21:46:50.027Z,6.77
2022-09-22T21:49:16.454Z,6.89
2022-09-22T21:51:44.329Z,6.77
2022-09-22T21:54:18.817Z,6.78
2022-09-22T21:56:46.074Z,6.81
2022-09-22T21:59:13.229Z,6.81
